createdAt,value
2023-04-10T00:01:36.388Z,9.27
2023-04-10T00:04:22.331Z,9.77
2023-04-10T00:07:14.340Z,9.90
2023-04-10T00:10:00.175Z,9.63
2023-04-10T00:12:46.494Z,9.82
2023-04-10T00:15:40.779Z,9.65
2023-04-10T00:18:26.542Z,9.80
2023-04-10T00:21:12.780Z,9.18
2023-04-10T00:23:59.932Z,8.85
2023-04-10T00:26:49.577Z,9.50
2023-04-10T00:29:36.173Z,8.98
2023-04-10T00:32:22.588Z,9.18
2023-04-10T00:35:09.382Z,9.02
2023-04-10T00:37:59.126Z,8.93
2023-04-10T00:40:46.360Z,9.20
2023-04-10T00:43:32.486Z,8.93
2023-04-10T00:46:20.542Z,8.93
2023-04-10T00:49:06.940Z,8.48
2023-04-10T00:51:53.477Z,8.50
2023-04-10T00:54:39.805Z,8.25
2023-04-10T00:57:27.533Z,8.73
2023-04-10T01:00:14.574Z,8.05
2023-04-10T01:03:01.660Z,9.00
2023-04-10T01:05:53.055Z,8.18
2023-04-10T01:08:47.270Z,8.00
2023-04-10T01:11:45.381Z,8.48
2023-04-10T01:14:41.333Z,7.50
2023-04-10T01:17:32.025Z,7.57
2023-04-10T01:20:22.369Z,8.02
2023-04-10T01:23:51.875Z,7.72
2023-04-10T01:29:32.652Z,7.65
2023-04-10T01:32:23.037Z,7.35
2023-04-10T01:35:15.575Z,7.40
2023-04-10T01:38:04.927Z,8.00
2023-04-10T01:40:53.434Z,7.70
2023-04-10T01:43:49.653Z,7.70
2023-04-10T01:46:39.173Z,8.07
2023-04-10T01:49:28.366Z,7.43
2023-04-10T01:52:25.769Z,7.82
2023-04-10T01:58:14.454Z,7.50
2023-04-10T02:01:01.830Z,7.65
2023-04-10T02:03:49.258Z,7.93
2023-04-10T02:06:44.896Z,7.43
2023-04-10T02:09:40.728Z,8.10
2023-04-10T02:12:30.469Z,7.38
2023-04-10T02:15:22.682Z,7.78
2023-04-10T02:18:11.491Z,7.68
2023-04-10T02:20:59.198Z,7.10
2023-04-10T02:23:45.757Z,7.60
2023-04-10T02:26:43.809Z,7.45
2023-04-10T02:29:29.670Z,7.65
2023-04-10T02:32:17.400Z,7.45
2023-04-10T02:35:05.534Z,7.45
2023-04-10T02:37:52.707Z,7.47
2023-04-10T02:40:38.692Z,7.28
2023-04-10T02:43:32.500Z,7.78
2023-04-10T02:46:19.317Z,7.55
2023-04-10T02:49:06.418Z,8.05
2023-04-10T02:51:52.502Z,8.27
2023-04-10T02:54:40.496Z,8.57
2023-04-10T02:57:27.381Z,7.82
2023-04-10T03:00:14.325Z,8.48
2023-04-10T03:03:31.171Z,8.20
2023-04-10T03:06:17.584Z,7.97
2023-04-10T03:09:05.882Z,8.30
2023-04-10T03:11:54.027Z,8.32
2023-04-10T03:14:40.739Z,8.32
2023-04-10T03:17:28.613Z,8.80
2023-04-10T03:20:15.882Z,8.25
2023-04-10T03:23:03.080Z,8.32
2023-04-10T03:25:51.284Z,8.75
2023-04-10T03:28:39.693Z,8.85
2023-04-10T03:31:27.942Z,7.97
2023-04-10T03:34:17.072Z,8.38
2023-04-10T03:37:03.793Z,8.35
2023-04-10T03:39:49.532Z,8.82
2023-04-10T03:42:35.882Z,7.82
2023-04-10T03:45:24.022Z,7.90
2023-04-10T03:48:09.850Z,8.75
2023-04-10T03:51:02.543Z,8.23
2023-04-10T03:53:48.125Z,8.00
2023-04-10T03:56:35.473Z,8.80
2023-04-10T03:59:24.359Z,8.57
2023-04-10T04:02:18.850Z,7.82
2023-04-10T04:05:05.960Z,7.88
2023-04-10T04:08:04.777Z,8.27
2023-04-10T04:11:15.869Z,8.23
2023-04-10T04:14:36.907Z,8.30
2023-04-10T04:17:46.345Z,8.70
2023-04-10T04:20:50.837Z,8.20
2023-04-10T04:24:12.090Z,8.13
2023-04-10T04:27:13.451Z,8.57
2023-04-10T04:30:08.842Z,8.20
2023-04-10T04:33:25.439Z,8.35
2023-04-10T04:36:37.840Z,8.10
2023-04-10T04:39:46.917Z,8.50
2023-04-10T04:42:41.620Z,8.75
2023-04-10T04:45:47.905Z,9.23
2023-04-10T04:48:58.574Z,7.97
2023-04-10T04:51:59.972Z,8.85
2023-04-10T04:54:56.221Z,9.38
2023-04-10T04:57:53.403Z,8.77
2023-04-10T05:00:47.022Z,9.35
2023-04-10T05:03:45.294Z,9.68
2023-04-10T05:06:43.557Z,8.85
2023-04-10T05:09:48.123Z,8.98
2023-04-10T05:13:00.849Z,9.07
2023-04-10T05:16:06.021Z,7.85
2023-04-10T05:19:17.321Z,9.40
2023-04-10T05:22:31.081Z,9.13
2023-04-10T05:25:32.828Z,8.20
2023-04-10T05:28:36.597Z,8.90
2023-04-10T05:31:41.419Z,8.88
2023-04-10T05:34:34.718Z,9.07
2023-04-10T05:38:00.880Z,7.80
2023-04-10T05:41:00.896Z,7.90
2023-04-10T05:44:09.920Z,7.97
2023-04-10T05:47:14.813Z,7.75
2023-04-10T05:50:30.399Z,8.07
2023-04-10T05:53:37.140Z,7.90
2023-04-10T05:56:42.174Z,7.85
2023-04-10T06:00:00.369Z,7.35
2023-04-10T06:03:12.540Z,7.28
2023-04-10T06:06:08.848Z,7.63
2023-04-10T06:08:56.361Z,7.05
2023-04-10T06:11:42.504Z,7.63
2023-04-10T06:14:28.074Z,7.20
2023-04-10T06:17:15.325Z,7.22
2023-04-10T06:20:05.080Z,7.28
2023-04-10T06:22:51.582Z,7.75
2023-04-10T06:25:39.553Z,7.50
2023-04-10T06:28:25.230Z,6.88
2023-04-10T06:31:15.110Z,6.97
2023-04-10T06:34:00.977Z,6.80
2023-04-10T06:36:47.568Z,7.80
2023-04-10T06:39:33.331Z,6.93
2023-04-10T06:42:20.409Z,7.38
2023-04-10T06:45:17.023Z,6.60
2023-04-10T06:48:02.936Z,7.80
2023-04-10T06:50:48.862Z,7.10
2023-04-10T06:53:34.571Z,6.97
2023-04-10T06:56:21.015Z,7.47
2023-04-10T06:59:08.115Z,7.28
2023-04-10T07:01:53.782Z,7.15
2023-04-10T07:04:39.780Z,7.55
2023-04-10T07:07:25.546Z,7.90
2023-04-10T07:10:11.691Z,7.40
2023-04-10T07:12:59.026Z,7.00
2023-04-10T07:15:46.628Z,7.60
2023-04-10T07:18:32.927Z,7.25
2023-04-10T07:21:21.923Z,7.75
2023-04-10T07:24:08.237Z,7.57
2023-04-10T07:26:54.015Z,8.10
2023-04-10T07:29:39.602Z,7.03
2023-04-10T07:32:27.160Z,7.15
2023-04-10T07:35:13.423Z,7.78
2023-04-10T07:37:59.519Z,7.10
2023-04-10T07:40:45.225Z,8.25
2023-04-10T07:43:31.108Z,7.53
2023-04-10T07:46:17.358Z,7.40
2023-04-10T07:49:07.391Z,8.32
2023-04-10T07:51:54.490Z,7.47
2023-04-10T07:54:40.263Z,7.38
2023-04-10T07:57:26.074Z,7.55
2023-04-10T08:00:13.012Z,7.63
2023-04-10T08:02:59.029Z,8.20
2023-04-10T08:05:46.581Z,7.90
2023-04-10T08:08:32.360Z,7.90
2023-04-10T08:11:26.584Z,7.55
2023-04-10T08:14:13.583Z,7.78
2023-04-10T08:17:04.149Z,7.43
2023-04-10T08:19:50.286Z,8.40
2023-04-10T08:22:37.897Z,7.65
2023-04-10T08:25:23.695Z,8.05
2023-04-10T08:28:09.292Z,7.68
2023-04-10T08:30:54.909Z,7.45
2023-04-10T08:33:40.728Z,7.55
2023-04-10T08:36:28.772Z,7.70
2023-04-10T08:39:15.847Z,7.63
2023-04-10T08:42:01.975Z,7.25
2023-04-10T08:44:49.646Z,7.55
2023-04-10T08:47:39.890Z,7.55
2023-04-10T08:50:25.753Z,7.28
2023-04-10T08:53:13.436Z,7.40
2023-04-10T08:56:04.081Z,7.00
2023-04-10T08:58:52.065Z,7.80
2023-04-10T09:01:39.792Z,7.32
2023-04-10T09:04:26.656Z,7.75
2023-04-10T09:07:12.456Z,6.78
2023-04-10T09:09:58.120Z,7.22
2023-04-10T09:12:46.602Z,7.53
2023-04-10T09:15:58.574Z,7.30
2023-04-10T09:18:46.773Z,7.35
2023-04-10T09:21:32.701Z,6.80
2023-04-10T09:24:18.310Z,6.63
2023-04-10T09:27:04.033Z,6.68
2023-04-10T09:29:51.824Z,6.80
2023-04-10T09:32:39.977Z,7.30
2023-04-10T09:35:37.053Z,6.97
2023-04-10T09:38:22.973Z,7.68
2023-04-10T09:41:09.712Z,7.22
2023-04-10T09:44:07.264Z,6.72
2023-04-10T09:46:54.772Z,6.82
2023-04-10T09:49:45.395Z,6.57
2023-04-10T09:52:34.998Z,6.80
2023-04-10T09:55:20.830Z,6.60
2023-04-10T09:58:06.948Z,6.50
2023-04-10T10:00:53.151Z,6.85
2023-04-10T10:03:41.254Z,6.43
2023-04-10T10:06:31.694Z,6.85
2023-04-10T10:09:17.545Z,6.80
2023-04-10T10:12:04.379Z,6.22
2023-04-10T10:14:57.629Z,7.20
2023-04-10T10:17:46.694Z,6.40
2023-04-10T10:20:36.947Z,5.80
2023-04-10T10:23:23.402Z,6.80
2023-04-10T10:26:10.471Z,7.10
2023-04-10T10:28:57.966Z,6.85
2023-04-10T10:31:44.545Z,5.95
2023-04-10T10:34:31.915Z,6.35
2023-04-10T10:37:19.756Z,6.07
2023-04-10T10:40:10.793Z,6.15
2023-04-10T10:43:02.012Z,6.20
2023-04-10T10:45:52.748Z,6.28
2023-04-10T10:48:41.821Z,6.25
2023-04-10T10:51:47.030Z,6.65
2023-04-10T10:54:36.590Z,6.40
2023-04-10T10:57:46.384Z,6.25
2023-04-10T11:01:09.296Z,5.85
2023-04-10T11:03:57.227Z,6.05
2023-04-10T11:06:52.578Z,5.85
2023-04-10T11:09:48.080Z,5.60
2023-04-10T11:13:12.502Z,5.82
2023-04-10T11:15:59.188Z,5.63
2023-04-10T11:19:14.303Z,5.75
2023-04-10T11:22:07.525Z,5.72
2023-04-10T11:24:57.806Z,5.57
2023-04-10T11:27:48.431Z,6.13
2023-04-10T11:30:36.175Z,5.72
2023-04-10T11:33:21.891Z,5.28
2023-04-10T11:36:08.132Z,6.10
2023-04-10T11:38:58.571Z,5.60
2023-04-10T11:41:47.679Z,5.80
2023-04-10T11:44:35.544Z,5.50
2023-04-10T11:47:22.042Z,5.53
2023-04-10T11:50:08.855Z,5.72
2023-04-10T11:52:56.411Z,5.18
2023-04-10T11:55:42.670Z,5.28
2023-04-10T11:58:32.183Z,5.25
2023-04-10T12:01:21.859Z,4.95
2023-04-10T12:04:14.708Z,4.75
2023-04-10T12:07:00.592Z,4.32
2023-04-10T12:09:46.760Z,4.03
2023-04-10T12:12:36.146Z,3.88
2023-04-10T12:15:30.930Z,3.78
2023-04-10T12:18:17.061Z,3.53
2023-04-10T12:23:50.457Z,3.50
2023-04-10T12:26:36.303Z,3.75
2023-04-10T12:29:27.872Z,3.20
2023-04-10T12:32:15.491Z,3.67
2023-04-10T12:35:01.569Z,3.70
2023-04-10T12:37:50.620Z,3.30
2023-04-10T12:40:36.111Z,3.42
2023-04-10T12:43:32.374Z,2.90
2023-04-10T12:46:28.898Z,3.15
2023-04-10T12:49:17.601Z,3.65
2023-04-10T12:52:03.440Z,3.00
2023-04-10T12:54:48.928Z,3.05
2023-04-10T12:57:34.645Z,3.30
2023-04-10T13:00:21.175Z,3.60
2023-04-10T13:03:07.711Z,3.05
2023-04-10T13:05:55.310Z,3.03
2023-04-10T13:08:41.499Z,2.72
2023-04-10T13:11:27.422Z,3.15
2023-04-10T13:14:13.936Z,3.33
2023-04-10T13:16:59.422Z,3.58
2023-04-10T13:19:45.460Z,4.15
2023-04-10T13:22:32.952Z,3.83
2023-04-10T13:25:18.743Z,3.35
2023-04-10T13:28:10.193Z,3.45
2023-04-10T13:30:56.465Z,3.47
2023-04-10T13:33:43.786Z,3.38
2023-04-10T13:36:30.016Z,3.05
2023-04-10T13:39:18.822Z,2.97
2023-04-10T13:42:04.674Z,3.30
2023-04-10T13:44:50.588Z,3.60
2023-04-10T13:47:36.258Z,3.28
2023-04-10T13:50:22.265Z,3.50
2023-04-10T13:53:10.265Z,3.08
2023-04-10T13:55:57.791Z,3.25
2023-04-10T13:58:46.011Z,3.30
2023-04-10T14:01:31.770Z,2.75
2023-04-10T14:04:17.667Z,3.33
2023-04-10T14:07:03.511Z,2.92
2023-04-10T14:09:49.263Z,3.33
2023-04-10T14:12:37.768Z,3.10
2023-04-10T14:15:23.865Z,2.50
2023-04-10T14:18:09.582Z,2.63
2023-04-10T14:20:55.511Z,2.63
2023-04-10T14:23:42.150Z,2.88
2023-04-10T14:26:27.834Z,3.47
2023-04-10T14:29:18.193Z,2.67
2023-04-10T14:32:08.475Z,3.03
2023-04-10T14:34:54.718Z,3.42
2023-04-10T14:37:40.642Z,3.40
2023-04-10T14:40:26.324Z,3.65
2023-04-10T14:43:12.333Z,3.90
2023-04-10T14:45:59.485Z,3.10
2023-04-10T14:48:44.992Z,3.22
2023-04-10T14:51:30.657Z,3.35
2023-04-10T14:54:24.254Z,3.22
2023-04-10T14:57:10.964Z,3.40
2023-04-10T14:59:56.701Z,3.20
2023-04-10T15:02:45.414Z,3.50
2023-04-10T15:05:32.044Z,3.03
2023-04-10T15:08:17.642Z,3.53
2023-04-10T15:11:05.280Z,3.03
2023-04-10T15:13:51.351Z,2.85
2023-04-10T15:16:37.205Z,3.35
2023-04-10T15:19:24.382Z,3.50
2023-04-10T15:22:09.968Z,3.50
2023-04-10T15:24:55.460Z,3.47
2023-04-10T15:27:41.021Z,3.55
2023-04-10T15:30:26.845Z,3.35
2023-04-10T15:33:12.662Z,3.28
2023-04-10T15:35:59.606Z,3.40
2023-04-10T15:38:45.262Z,3.20
2023-04-10T15:41:32.595Z,3.08
2023-04-10T15:44:18.120Z,3.38
2023-04-10T15:47:03.746Z,3.25
2023-04-10T15:49:49.535Z,2.95
2023-04-10T15:52:36.496Z,3.60
2023-04-10T15:55:22.193Z,2.85
2023-04-10T15:58:07.931Z,2.97
2023-04-10T16:00:53.852Z,3.28
2023-04-10T16:03:40.201Z,3.10
2023-04-10T16:06:27.802Z,3.38
2023-04-10T16:09:24.964Z,3.28
2023-04-10T16:12:12.756Z,3.28
2023-04-10T16:14:58.581Z,3.60
2023-04-10T16:17:44.638Z,3.05
2023-04-10T16:20:30.810Z,3.70
2023-04-10T16:23:16.381Z,3.60
2023-04-10T16:26:04.083Z,3.70
2023-04-10T16:28:50.181Z,4.15
2023-04-10T16:31:36.050Z,4.30
2023-04-10T16:34:22.148Z,4.00
2023-04-10T16:37:08.080Z,4.05
2023-04-10T16:39:53.903Z,4.70
2023-04-10T16:42:42.767Z,4.38
2023-04-10T16:45:28.775Z,5.80
2023-04-10T16:48:14.577Z,6.43
2023-04-10T16:51:05.939Z,5.43
2023-04-10T16:53:52.121Z,5.63
2023-04-10T16:56:37.784Z,6.32
2023-04-10T16:59:24.782Z,6.88
2023-04-10T17:02:10.665Z,6.13
2023-04-10T17:04:57.021Z,6.82
2023-04-10T17:07:44.559Z,7.38
2023-04-10T17:10:30.827Z,7.07
2023-04-10T17:13:19.828Z,7.80
2023-04-10T17:16:10.728Z,8.38
2023-04-10T17:18:57.659Z,8.20
2023-04-10T17:21:44.092Z,7.97
2023-04-10T17:24:31.557Z,7.72
2023-04-10T17:27:22.297Z,7.40
2023-04-10T17:30:11.863Z,7.47
2023-04-10T17:32:59.238Z,8.57
2023-04-10T17:35:45.132Z,8.93
2023-04-10T17:38:31.042Z,8.90
2023-04-10T17:41:17.388Z,8.57
2023-04-10T17:44:05.476Z,8.23
2023-04-10T17:46:53.569Z,8.48
2023-04-10T17:49:46.448Z,9.88
2023-04-10T17:52:32.199Z,10.02
2023-04-10T17:55:21.247Z,9.43
2023-04-10T17:58:07.456Z,12.90
2023-04-10T18:00:53.069Z,8.20
2023-04-10T18:03:39.276Z,9.50
2023-04-10T18:06:27.690Z,7.22
2023-04-10T18:09:13.636Z,7.15
2023-04-10T18:11:59.943Z,7.97
2023-04-10T18:14:48.067Z,6.63
2023-04-10T18:17:38.766Z,8.02
2023-04-10T18:20:28.400Z,6.45
2023-04-10T18:23:16.205Z,9.25
2023-04-10T18:26:03.663Z,10.73
2023-04-10T18:28:52.274Z,6.07
2023-04-10T18:31:41.434Z,5.38
2023-04-10T18:34:28.307Z,4.80
2023-04-10T18:37:14.201Z,5.53
2023-04-10T18:40:09.845Z,5.32
2023-04-10T18:43:01.970Z,5.00
2023-04-10T18:45:47.795Z,5.55
2023-04-10T18:48:35.946Z,5.78
2023-04-10T18:51:22.310Z,6.63
2023-04-10T18:54:08.136Z,6.65
2023-04-10T18:56:56.688Z,6.25
2023-04-10T18:59:42.460Z,6.80
2023-04-10T19:02:28.342Z,6.35
2023-04-10T19:05:14.487Z,7.10
2023-04-10T19:08:05.008Z,7.07
2023-04-10T19:10:51.245Z,7.47
2023-04-10T19:13:38.909Z,7.05
2023-04-10T19:16:24.706Z,6.22
2023-04-10T19:19:10.671Z,5.85
2023-04-10T19:21:56.104Z,6.03
2023-04-10T19:24:41.895Z,5.95
2023-04-10T19:27:28.377Z,5.90
2023-04-10T19:30:15.832Z,6.57
2023-04-10T19:33:01.891Z,5.30
2023-04-10T19:35:47.950Z,4.88
2023-04-10T19:38:33.960Z,5.70
2023-04-10T19:41:19.532Z,5.28
2023-04-10T19:44:06.204Z,5.18
2023-04-10T19:46:53.444Z,4.75
2023-04-10T19:49:39.213Z,4.30
2023-04-10T19:52:25.783Z,4.75
2023-04-10T19:55:11.519Z,4.05
2023-04-10T19:57:57.126Z,4.50
2023-04-10T20:00:42.996Z,4.13
2023-04-10T20:03:31.497Z,4.13
2023-04-10T20:06:17.156Z,4.05
2023-04-10T20:09:02.573Z,3.67
2023-04-10T20:11:48.604Z,4.18
2023-04-10T20:14:34.521Z,3.72
2023-04-10T20:17:20.434Z,4.32
2023-04-10T20:20:09.133Z,3.60
2023-04-10T20:22:57.304Z,3.13
2023-04-10T20:25:43.715Z,3.60
2023-04-10T20:28:29.369Z,2.92
2023-04-10T20:31:15.503Z,3.33
2023-04-10T20:34:01.298Z,2.80
2023-04-10T20:36:48.236Z,3.10
2023-04-10T20:39:33.807Z,3.78
2023-04-10T20:42:19.442Z,2.83
2023-04-10T20:45:06.334Z,3.08
2023-04-10T20:47:52.139Z,3.17
2023-04-10T20:50:47.765Z,2.47
2023-04-10T20:53:35.318Z,3.20
2023-04-10T20:56:24.792Z,3.38
2023-04-10T20:59:12.812Z,3.53
2023-04-10T21:01:58.966Z,3.70
2023-04-10T21:04:44.550Z,3.33
2023-04-10T21:07:30.811Z,3.45
2023-04-10T21:10:17.670Z,3.90
2023-04-10T21:13:03.171Z,4.00
2023-04-10T21:15:49.466Z,3.70
2023-04-10T21:18:35.198Z,3.55
2023-04-10T21:21:21.087Z,3.80
2023-04-10T21:24:06.863Z,3.63
2023-04-10T21:26:54.015Z,3.75
2023-04-10T21:29:40.118Z,3.97
2023-04-10T21:32:25.935Z,4.00
2023-04-10T21:35:11.708Z,3.47
2023-04-10T21:38:02.100Z,3.22
2023-04-10T21:40:51.839Z,3.88
2023-04-10T21:43:39.942Z,3.55
2023-04-10T21:46:25.876Z,3.65
2023-04-10T21:49:11.530Z,4.13
2023-04-10T21:51:59.135Z,3.90
2023-04-10T21:54:44.817Z,3.65
2023-04-10T21:57:30.343Z,3.72
2023-04-10T22:00:18.450Z,3.20
2023-04-10T22:03:07.492Z,3.65
2023-04-10T22:05:53.425Z,3.75
2023-04-10T22:08:40.120Z,3.35
2023-04-10T22:11:25.745Z,3.65
2023-04-10T22:14:17.191Z,3.60
2023-04-10T22:17:05.950Z,3.90
2023-04-10T22:19:52.060Z,3.85
2023-04-10T22:22:37.628Z,3.92
2023-04-10T22:25:23.285Z,4.50
2023-04-10T22:28:09.337Z,4.93
2023-04-10T22:30:54.993Z,4.30
2023-04-10T22:33:42.299Z,3.60
2023-04-10T22:36:32.788Z,4.60
2023-04-10T22:39:18.581Z,4.33
2023-04-10T22:42:04.255Z,4.53
2023-04-10T22:44:50.020Z,4.80
2023-04-10T22:47:35.779Z,4.30
2023-04-10T22:50:22.812Z,2.88
2023-04-10T22:53:10.360Z,1.77
2023-04-10T22:55:55.852Z,1.17
2023-04-10T22:58:41.847Z,1.25
2023-04-10T23:01:28.166Z,0.80
2023-04-10T23:04:14.164Z,1.05
2023-04-10T23:07:01.573Z,1.08
2023-04-10T23:09:46.969Z,1.10
2023-04-10T23:12:32.724Z,0.98
2023-04-10T23:15:18.768Z,1.17
2023-04-10T23:18:04.832Z,0.82
2023-04-10T23:20:51.058Z,0.90
2023-04-10T23:23:37.927Z,1.05
2023-04-10T23:26:23.421Z,0.88
2023-04-10T23:29:08.920Z,1.00
2023-04-10T23:31:54.692Z,1.42
2023-04-10T23:34:40.075Z,1.30
2023-04-10T23:37:25.679Z,1.73
2023-04-10T23:40:13.546Z,2.03
2023-04-10T23:42:59.492Z,2.35
2023-04-10T23:45:45.038Z,2.92
2023-04-10T23:48:30.623Z,3.30
2023-04-10T23:51:16.177Z,4.15
2023-04-10T23:54:01.645Z,4.18
2023-04-10T23:56:48.752Z,4.32
2023-04-10T23:59:34.585Z,3.83
